createdAt,value
2022-09-28T00:01:57.254Z,86.54
2022-09-28T00:04:25.916Z,86.71
2022-09-28T00:06:55.967Z,86.50
2022-09-28T00:09:24.758Z,85.97
2022-09-28T00:11:53.955Z,85.93
2022-09-28T00:14:23.166Z,85.89
2022-09-28T00:16:51.895Z,86.12
2022-09-28T00:19:20.619Z,86.05
2022-09-28T00:21:49.329Z,85.83
2022-09-28T00:24:24.073Z,85.45
2022-09-28T00:26:58.158Z,86.12
2022-09-28T00:29:28.877Z,86.21
2022-09-28T00:32:00.725Z,86.13
2022-09-28T00:34:32.276Z,85.91
2022-09-28T00:37:01.939Z,86.35
2022-09-28T00:39:32.804Z,86.77
2022-09-28T00:42:01.554Z,86.11
2022-09-28T00:44:41.478Z,87.14
2022-09-28T00:47:26.665Z,86.68
2022-09-28T00:50:00.341Z,85.98
2022-09-28T00:52:33.509Z,86.66
2022-09-28T00:55:08.278Z,87.09
2022-09-28T00:57:39.507Z,86.19
2022-09-28T01:00:10.085Z,86.63
2022-09-28T01:02:38.878Z,86.57
2022-09-28T01:05:11.078Z,86.77
2022-09-28T01:07:40.362Z,86.27
2022-09-28T01:10:11.207Z,86.71
2022-09-28T01:12:40.069Z,87.13
2022-09-28T01:15:09.738Z,87.27
2022-09-28T01:17:51.064Z,87.63
2022-09-28T01:20:52.695Z,87.03
2022-09-28T01:23:51.307Z,87.87
2022-09-28T01:26:52.608Z,87.16
2022-09-28T01:29:33.709Z,87.58
2022-09-28T01:32:12.118Z,86.90
2022-09-28T01:34:46.737Z,86.89
2022-09-28T01:37:21.500Z,86.77
2022-09-28T01:39:53.358Z,86.47
2022-09-28T01:42:26.036Z,86.61
2022-09-28T01:45:03.060Z,86.63
2022-09-28T01:47:38.520Z,86.46
2022-09-28T01:50:13.661Z,86.55
2022-09-28T01:52:50.928Z,86.55
2022-09-28T01:55:29.550Z,86.27
2022-09-28T01:58:03.500Z,86.13
2022-09-28T02:00:38.580Z,86.59
2022-09-28T02:03:11.112Z,86.61
2022-09-28T02:05:54.409Z,86.46
2022-09-28T02:08:28.629Z,87.06
2022-09-28T02:11:04.449Z,86.41
2022-09-28T02:13:36.841Z,86.30
2022-09-28T02:16:15.331Z,86.26
2022-09-28T02:18:45.389Z,85.65
2022-09-28T02:21:24.190Z,86.49
2022-09-28T02:23:59.607Z,85.82
2022-09-28T02:26:33.418Z,86.00
2022-09-28T02:29:02.896Z,85.40
2022-09-28T02:31:33.246Z,85.56
2022-09-28T02:34:02.477Z,85.56
2022-09-28T02:36:31.532Z,85.92
2022-09-28T02:39:01.661Z,86.30
2022-09-28T02:41:49.776Z,86.14
2022-09-28T02:44:48.503Z,85.39
2022-09-28T02:47:28.438Z,85.67
2022-09-28T02:50:09.812Z,85.52
2022-09-28T02:53:01.497Z,85.83
2022-09-28T02:55:50.528Z,86.24
2022-09-28T02:58:33.351Z,85.85
2022-09-28T03:01:12.116Z,86.15
2022-09-28T03:03:49.977Z,86.17
2022-09-28T03:06:25.239Z,86.25
2022-09-28T03:09:01.868Z,86.21
2022-09-28T03:11:39.516Z,86.20
2022-09-28T03:14:11.371Z,86.24
2022-09-28T03:16:51.168Z,86.18
2022-09-28T03:19:30.167Z,85.89
2022-09-28T03:21:59.611Z,86.19
2022-09-28T03:24:28.189Z,86.13
2022-09-28T03:26:56.806Z,86.13
2022-09-28T03:29:25.590Z,85.83
2022-09-28T03:32:00.299Z,86.21
2022-09-28T03:34:31.063Z,85.54
2022-09-28T03:36:59.781Z,85.77
2022-09-28T03:39:28.710Z,86.15
2022-09-28T03:41:57.478Z,85.80
2022-09-28T03:44:26.197Z,86.02
2022-09-28T03:46:54.899Z,86.21
2022-09-28T03:49:23.658Z,85.70
2022-09-28T03:51:53.819Z,86.02
2022-09-28T03:54:22.533Z,86.25
2022-09-28T03:56:52.341Z,86.12
2022-09-28T03:59:21.181Z,86.24
2022-09-28T04:01:50.674Z,86.07
2022-09-28T04:04:19.778Z,86.23
2022-09-28T04:06:48.411Z,86.25
2022-09-28T04:09:19.000Z,86.20
2022-09-28T04:12:03.382Z,86.58
2022-09-28T04:14:35.041Z,86.33
2022-09-28T04:17:05.793Z,86.03
2022-09-28T04:19:34.611Z,86.07
2022-09-28T04:22:15.337Z,86.76
2022-09-28T04:24:46.669Z,86.54
2022-09-28T04:27:25.287Z,86.68
2022-09-28T04:29:53.969Z,86.37
2022-09-28T04:32:22.578Z,86.61
2022-09-28T04:34:52.881Z,86.40
2022-09-28T04:37:21.762Z,86.22
2022-09-28T04:39:53.628Z,86.08
2022-09-28T04:42:22.410Z,86.23
2022-09-28T04:44:52.504Z,86.23
2022-09-28T04:47:21.245Z,86.56
2022-09-28T04:49:59.717Z,86.47
2022-09-28T04:52:33.751Z,86.82
2022-09-28T04:55:03.852Z,86.71
2022-09-28T04:57:35.488Z,87.24
2022-09-28T05:00:05.570Z,87.20
2022-09-28T05:02:36.488Z,86.73
2022-09-28T05:05:16.450Z,87.42
2022-09-28T05:07:59.768Z,86.98
2022-09-28T05:10:29.966Z,86.78
2022-09-28T05:12:58.739Z,86.54
2022-09-28T05:15:28.657Z,86.54
2022-09-28T05:17:57.520Z,86.82
2022-09-28T05:20:36.051Z,87.43
2022-09-28T05:23:04.759Z,87.23
2022-09-28T05:25:36.922Z,87.59
2022-09-28T05:28:25.476Z,86.90
2022-09-28T05:31:07.060Z,86.74
2022-09-28T05:33:45.784Z,87.46
2022-09-28T05:36:15.517Z,87.11
2022-09-28T05:38:45.217Z,86.83
2022-09-28T05:41:15.640Z,86.99
2022-09-28T05:43:45.850Z,87.75
2022-09-28T05:46:14.822Z,87.12
2022-09-28T05:48:43.817Z,87.08
2022-09-28T05:51:12.484Z,87.06
2022-09-28T05:53:41.178Z,86.56
2022-09-28T05:56:10.876Z,86.45
2022-09-28T05:58:45.658Z,86.84
2022-09-28T06:01:15.218Z,87.16
2022-09-28T06:03:44.077Z,86.70
2022-09-28T06:06:13.096Z,86.50
2022-09-28T06:08:46.499Z,85.97
2022-09-28T06:11:27.210Z,86.48
2022-09-28T06:13:59.569Z,86.32
2022-09-28T06:16:31.600Z,86.70
2022-09-28T06:19:00.424Z,86.67
2022-09-28T06:21:38.516Z,86.84
2022-09-28T06:24:08.605Z,86.92
2022-09-28T06:26:38.621Z,86.54
2022-09-28T06:29:09.709Z,86.01
2022-09-28T06:31:38.357Z,86.00
2022-09-28T06:34:06.985Z,86.13
2022-09-28T06:36:35.647Z,86.46
2022-09-28T06:39:04.492Z,86.12
2022-09-28T06:41:33.452Z,85.94
2022-09-28T06:44:14.610Z,86.58
2022-09-28T06:46:56.105Z,86.45
2022-09-28T06:49:38.481Z,86.63
2022-09-28T06:52:17.990Z,85.66
2022-09-28T06:55:12.859Z,85.64
2022-09-28T06:57:46.226Z,85.38
2022-09-28T07:00:17.159Z,85.02
2022-09-28T07:02:48.197Z,84.93
2022-09-28T07:05:29.291Z,84.42
2022-09-28T07:08:20.690Z,84.31
2022-09-28T07:11:08.369Z,84.21
2022-09-28T07:13:50.949Z,83.46
2022-09-28T07:16:28.690Z,83.84
2022-09-28T07:19:00.922Z,83.18
2022-09-28T07:21:30.664Z,82.96
2022-09-28T07:24:04.357Z,82.85
2022-09-28T07:26:46.049Z,82.41
2022-09-28T07:29:24.521Z,81.80
2022-09-28T07:32:04.723Z,81.68
2022-09-28T07:34:40.149Z,81.44
2022-09-28T07:37:19.172Z,81.12
2022-09-28T07:39:59.143Z,80.85
2022-09-28T07:42:30.341Z,80.58
2022-09-28T07:44:59.614Z,80.01
2022-09-28T07:47:34.658Z,79.52
2022-09-28T07:50:29.711Z,79.17
2022-09-28T07:53:21.733Z,78.77
2022-09-28T07:56:07.553Z,78.07
2022-09-28T07:58:44.436Z,77.80
2022-09-28T08:01:24.213Z,77.31
2022-09-28T08:03:56.614Z,76.92
2022-09-28T08:06:25.655Z,76.53
2022-09-28T08:08:57.122Z,75.83
2022-09-28T08:11:37.046Z,76.00
2022-09-28T08:14:18.019Z,75.36
2022-09-28T08:16:57.676Z,74.52
2022-09-28T08:19:48.329Z,73.54
2022-09-28T08:22:18.983Z,73.42
2022-09-28T08:24:49.263Z,73.03
2022-09-28T08:27:18.532Z,72.85
2022-09-28T08:29:47.215Z,71.35
2022-09-28T08:32:25.892Z,71.24
2022-09-28T08:35:06.964Z,71.08
2022-09-28T08:37:55.636Z,70.83
2022-09-28T08:40:59.729Z,70.77
2022-09-28T08:44:02.276Z,69.82
2022-09-28T08:46:46.022Z,69.07
2022-09-28T08:49:36.793Z,67.87
2022-09-28T08:52:25.233Z,67.02
2022-09-28T08:55:08.897Z,66.42
2022-09-28T08:57:48.336Z,65.68
2022-09-28T09:00:24.370Z,65.73
2022-09-28T09:02:53.358Z,64.71
2022-09-28T09:05:39.083Z,63.73
2022-09-28T09:08:27.701Z,64.31
2022-09-28T09:11:03.642Z,64.00
2022-09-28T09:14:07.842Z,63.12
2022-09-28T09:16:49.858Z,63.30
2022-09-28T09:19:36.809Z,63.27
2022-09-28T09:22:25.229Z,63.49
2022-09-28T09:25:04.748Z,63.04
2022-09-28T09:27:48.059Z,63.33
2022-09-28T09:30:20.530Z,63.69
2022-09-28T09:33:16.072Z,63.06
2022-09-28T09:36:21.389Z,63.96
2022-09-28T09:39:12.033Z,64.13
2022-09-28T09:42:07.140Z,64.62
2022-09-28T09:45:05.281Z,64.51
2022-09-28T09:48:03.120Z,64.01
2022-09-28T09:50:39.601Z,63.85
2022-09-28T09:53:18.030Z,63.85
2022-09-28T09:55:50.852Z,63.84
2022-09-28T09:58:35.529Z,63.71
2022-09-28T10:01:20.500Z,63.61
2022-09-28T10:04:01.424Z,64.11
2022-09-28T10:06:36.022Z,65.29
2022-09-28T10:09:10.220Z,65.45
2022-09-28T10:11:44.811Z,65.21
2022-09-28T10:14:20.262Z,65.27
2022-09-28T10:17:04.970Z,65.15
2022-09-28T10:19:45.503Z,65.62
2022-09-28T10:22:28.760Z,66.06
2022-09-28T10:25:01.313Z,66.21
2022-09-28T10:27:32.736Z,65.79
2022-09-28T10:30:14.938Z,66.38
2022-09-28T10:32:45.322Z,66.24
2022-09-28T10:35:23.584Z,66.16
2022-09-28T10:38:03.486Z,66.42
2022-09-28T10:40:57.109Z,66.31
2022-09-28T10:43:38.682Z,65.58
2022-09-28T10:46:16.940Z,64.67
2022-09-28T10:48:54.061Z,64.64
2022-09-28T10:51:41.766Z,64.38
2022-09-28T10:54:18.550Z,64.10
2022-09-28T10:56:50.932Z,64.07
2022-09-28T10:59:40.684Z,63.93
2022-09-28T11:02:27.319Z,64.00
2022-09-28T11:05:04.483Z,64.53
2022-09-28T11:07:46.830Z,64.56
2022-09-28T11:10:23.298Z,64.54
2022-09-28T11:12:55.255Z,64.55
2022-09-28T11:15:29.861Z,64.25
2022-09-28T11:18:20.146Z,64.67
2022-09-28T11:20:49.907Z,64.37
2022-09-28T11:23:23.616Z,64.79
2022-09-28T11:26:03.274Z,64.98
2022-09-28T11:28:35.233Z,65.54
2022-09-28T11:31:10.499Z,65.40
2022-09-28T11:33:51.845Z,65.87
2022-09-28T11:37:07.015Z,66.36
2022-09-28T11:39:47.566Z,66.06
2022-09-28T11:42:31.057Z,65.86
2022-09-28T11:45:12.758Z,65.00
2022-09-28T11:47:54.337Z,65.06
2022-09-28T11:50:32.546Z,65.64
2022-09-28T11:53:12.275Z,65.77
2022-09-28T11:55:48.181Z,66.48
2022-09-28T11:58:27.127Z,66.59
2022-09-28T12:01:02.567Z,66.50
2022-09-28T12:03:53.101Z,66.65
2022-09-28T12:06:29.200Z,66.84
2022-09-28T12:09:06.844Z,66.10
2022-09-28T12:12:02.190Z,65.11
2022-09-28T12:14:42.859Z,64.54
2022-09-28T12:17:22.315Z,64.02
2022-09-28T12:19:55.948Z,64.02
2022-09-28T12:22:33.761Z,63.24
2022-09-28T12:25:05.239Z,62.65
2022-09-28T12:27:43.307Z,62.42
2022-09-28T12:30:16.630Z,61.46
2022-09-28T12:32:51.042Z,61.69
2022-09-28T12:35:29.283Z,63.04
2022-09-28T12:38:17.463Z,63.87
2022-09-28T12:40:54.735Z,64.32
2022-09-28T12:43:46.830Z,64.24
2022-09-28T12:46:32.012Z,63.95
2022-09-28T12:52:29.557Z,63.99
2022-09-28T12:55:28.533Z,63.76
2022-09-28T12:58:05.954Z,63.53
2022-09-28T13:00:47.965Z,63.31
2022-09-28T13:03:41.423Z,63.36
2022-09-28T13:06:37.448Z,63.15
2022-09-28T13:09:20.394Z,63.19
2022-09-28T13:12:05.913Z,63.24
2022-09-28T13:15:04.173Z,63.28
2022-09-28T13:17:44.748Z,63.65
2022-09-28T13:20:26.543Z,63.46
2022-09-28T13:23:02.802Z,63.08
2022-09-28T13:25:36.526Z,63.73
2022-09-28T13:28:07.859Z,63.62
2022-09-28T13:30:40.494Z,63.88
2022-09-28T13:33:13.796Z,63.75
2022-09-28T13:35:44.483Z,63.45
2022-09-28T13:38:31.972Z,63.30
2022-09-28T13:41:16.477Z,63.90
2022-09-28T13:44:18.140Z,64.17
2022-09-28T13:46:59.807Z,64.78
2022-09-28T13:49:42.614Z,65.45
2022-09-28T13:52:21.785Z,65.26
2022-09-28T13:55:05.025Z,65.69
2022-09-28T13:57:47.808Z,65.81
2022-09-28T14:00:22.344Z,65.92
2022-09-28T14:02:59.094Z,66.09
2022-09-28T14:05:48.748Z,66.05
2022-09-28T14:08:33.886Z,66.49
2022-09-28T14:11:28.278Z,66.02
2022-09-28T14:14:01.329Z,66.01
2022-09-28T14:16:32.654Z,66.30
2022-09-28T14:19:09.047Z,66.18
2022-09-28T14:21:58.724Z,66.40
2022-09-28T14:24:36.008Z,66.78
2022-09-28T14:27:23.799Z,66.81
2022-09-28T14:30:07.070Z,66.75
2022-09-28T14:32:37.733Z,66.60
2022-09-28T14:35:18.560Z,67.12
2022-09-28T14:38:02.429Z,67.40
2022-09-28T14:40:49.760Z,67.73
2022-09-28T14:43:31.120Z,67.60
2022-09-28T14:46:21.722Z,67.97
2022-09-28T14:48:54.019Z,67.90
2022-09-28T14:51:44.446Z,68.38
2022-09-28T14:54:21.560Z,68.59
2022-09-28T14:57:08.267Z,68.54
2022-09-28T14:59:44.065Z,68.62
2022-09-28T15:02:20.966Z,68.79
2022-09-28T15:04:54.037Z,69.08
2022-09-28T15:07:25.199Z,69.31
2022-09-28T15:09:56.876Z,69.26
2022-09-28T15:12:28.915Z,69.47
2022-09-28T15:15:02.741Z,69.43
2022-09-28T15:17:39.478Z,69.43
2022-09-28T15:20:24.761Z,69.96
2022-09-28T15:22:57.829Z,70.18
2022-09-28T15:25:30.435Z,70.08
2022-09-28T15:28:02.667Z,70.34
2022-09-28T15:30:32.598Z,70.52
2022-09-28T15:33:17.418Z,70.52
2022-09-28T15:35:50.547Z,70.06
2022-09-28T15:38:20.206Z,69.94
2022-09-28T15:40:50.430Z,70.22
2022-09-28T15:43:27.318Z,70.03
2022-09-28T15:46:08.018Z,69.72
2022-09-28T15:48:46.740Z,69.86
2022-09-28T15:51:15.576Z,69.97
2022-09-28T15:53:48.637Z,69.89
2022-09-28T15:56:18.889Z,69.73
2022-09-28T15:59:11.627Z,70.21
2022-09-28T16:01:41.584Z,70.35
2022-09-28T16:04:36.876Z,70.79
2022-09-28T16:07:20.718Z,70.79
2022-09-28T16:10:04.861Z,70.92
2022-09-28T16:12:49.147Z,71.19
2022-09-28T16:15:22.158Z,71.92
2022-09-28T16:17:53.939Z,71.88
2022-09-28T16:20:29.599Z,72.25
2022-09-28T16:23:06.088Z,72.18
2022-09-28T16:25:39.196Z,72.33
2022-09-28T16:28:31.362Z,72.56
2022-09-28T16:31:05.947Z,72.66
2022-09-28T16:33:42.789Z,72.92
2022-09-28T16:36:15.009Z,73.41
2022-09-28T16:38:46.027Z,73.08
2022-09-28T16:41:17.738Z,73.42
2022-09-28T16:43:48.336Z,73.70
2022-09-28T16:46:20.043Z,73.47
2022-09-28T16:48:51.474Z,73.24
2022-09-28T16:51:21.877Z,72.99
2022-09-28T16:54:01.351Z,73.17
2022-09-28T16:56:30.519Z,73.16
2022-09-28T16:59:01.550Z,73.73
2022-09-28T17:01:31.543Z,73.57
2022-09-28T17:04:00.348Z,73.74
2022-09-28T17:06:29.433Z,73.56
2022-09-28T17:08:59.349Z,73.37
2022-09-28T17:11:27.977Z,74.08
2022-09-28T17:13:59.179Z,74.07
2022-09-28T17:17:02.342Z,74.41
2022-09-28T17:19:24.553Z,74.74
2022-09-28T17:21:53.710Z,75.03
2022-09-28T17:24:22.491Z,74.65
2022-09-28T17:26:52.721Z,74.78
2022-09-28T17:29:21.992Z,75.34
2022-09-28T17:31:52.308Z,75.02
2022-09-28T17:34:21.451Z,76.10
2022-09-28T17:36:50.203Z,76.45
2022-09-28T17:39:20.388Z,76.23
2022-09-28T17:41:49.202Z,76.34
2022-09-28T17:44:18.205Z,76.11
2022-09-28T17:46:49.990Z,75.51
2022-09-28T17:49:20.059Z,75.51
2022-09-28T17:51:50.532Z,75.07
2022-09-28T17:54:21.020Z,75.72
2022-09-28T17:56:50.218Z,75.28
2022-09-28T17:59:22.310Z,75.66
2022-09-28T18:01:53.937Z,75.26
2022-09-28T18:04:50.049Z,75.34
2022-09-28T18:07:13.347Z,75.57
2022-09-28T18:09:46.147Z,75.81
2022-09-28T18:12:15.520Z,76.13
2022-09-28T18:14:44.361Z,76.49
2022-09-28T18:17:13.423Z,76.44
2022-09-28T18:19:43.620Z,76.47
2022-09-28T18:22:13.047Z,76.02
2022-09-28T18:24:41.788Z,75.87
2022-09-28T18:27:10.647Z,75.58
2022-09-28T18:29:39.501Z,75.75
2022-09-28T18:32:08.217Z,75.54
2022-09-28T18:34:40.509Z,75.74
2022-09-28T18:37:11.909Z,75.60
2022-09-28T18:39:42.279Z,75.61
2022-09-28T18:42:11.869Z,76.00
2022-09-28T18:44:42.209Z,76.37
2022-09-28T18:47:15.724Z,76.28
2022-09-28T18:49:46.711Z,76.86
2022-09-28T18:52:17.268Z,77.24
2022-09-28T18:54:50.567Z,76.46
2022-09-28T18:57:21.483Z,76.68
2022-09-28T18:59:50.576Z,77.21
2022-09-28T19:02:21.069Z,77.65
2022-09-28T19:04:50.013Z,78.44
2022-09-28T19:07:24.313Z,78.32
2022-09-28T19:09:53.524Z,78.61
2022-09-28T19:12:22.411Z,79.04
2022-09-28T19:14:53.147Z,79.28
2022-09-28T19:17:22.013Z,78.91
2022-09-28T19:19:52.151Z,78.72
2022-09-28T19:22:22.320Z,78.44
2022-09-28T19:24:51.131Z,78.39
2022-09-28T19:27:20.054Z,78.19
2022-09-28T19:29:49.080Z,77.94
2022-09-28T19:32:18.041Z,77.73
2022-09-28T19:34:47.461Z,77.62
2022-09-28T19:37:16.621Z,77.70
2022-09-28T19:39:47.202Z,77.60
2022-09-28T19:42:16.414Z,78.15
2022-09-28T19:44:45.731Z,77.81
2022-09-28T19:47:14.581Z,77.86
2022-09-28T19:49:43.734Z,78.44
2022-09-28T19:52:17.277Z,78.44
2022-09-28T19:54:57.088Z,78.69
2022-09-28T19:57:28.966Z,78.52
2022-09-28T20:00:02.410Z,79.07
2022-09-28T20:02:35.240Z,79.43
2022-09-28T20:05:04.634Z,79.97
2022-09-28T20:07:35.228Z,80.37
2022-09-28T20:10:06.393Z,80.75
2022-09-28T20:12:35.450Z,80.96
2022-09-28T20:15:05.511Z,80.93
2022-09-28T20:17:34.321Z,81.42
2022-09-28T20:20:03.218Z,81.67
2022-09-28T20:22:32.344Z,81.76
2022-09-28T20:25:03.080Z,82.01
2022-09-28T20:27:33.113Z,81.81
2022-09-28T20:30:01.781Z,81.61
2022-09-28T20:32:32.943Z,82.37
2022-09-28T20:35:01.642Z,82.24
2022-09-28T20:37:31.369Z,82.70
2022-09-28T20:40:01.459Z,82.93
2022-09-28T20:42:32.245Z,83.18
2022-09-28T20:45:02.344Z,83.46
2022-09-28T20:47:31.221Z,83.72
2022-09-28T20:49:59.915Z,83.35
2022-09-28T20:52:28.540Z,84.04
2022-09-28T20:54:57.172Z,83.83
2022-09-28T20:57:25.852Z,83.98
2022-09-28T20:59:54.931Z,84.44
2022-09-28T21:02:25.363Z,84.36
2022-09-28T21:04:54.316Z,84.81
2022-09-28T21:07:22.930Z,84.62
2022-09-28T21:09:52.214Z,85.50
2022-09-28T21:12:20.931Z,85.11
2022-09-28T21:14:49.661Z,85.74
2022-09-28T21:17:18.293Z,86.04
2022-09-28T21:19:48.753Z,85.88
2022-09-28T21:22:17.343Z,86.09
2022-09-28T21:24:46.033Z,86.44
2022-09-28T21:27:14.692Z,86.49
2022-09-28T21:29:43.702Z,86.36
2022-09-28T21:32:12.401Z,86.88
2022-09-28T21:34:41.102Z,87.17
2022-09-28T21:37:11.044Z,87.27
2022-09-28T21:39:39.666Z,87.24
2022-09-28T21:42:08.484Z,87.04
2022-09-28T21:44:37.206Z,87.39
2022-09-28T21:47:05.924Z,87.42
2022-09-28T21:49:35.295Z,87.30
2022-09-28T21:52:03.974Z,87.54
2022-09-28T21:54:37.534Z,87.45
2022-09-28T21:57:06.268Z,87.79
2022-09-28T21:59:34.843Z,87.68
2022-09-28T22:02:05.215Z,87.87
2022-09-28T22:04:33.986Z,87.92
2022-09-28T22:07:02.548Z,88.00
2022-09-28T22:09:31.313Z,88.03
2022-09-28T22:12:01.364Z,88.38
2022-09-28T22:14:30.026Z,88.11
2022-09-28T22:16:58.669Z,88.21
2022-09-28T22:19:27.455Z,88.60
2022-09-28T22:21:56.062Z,88.55
2022-09-28T22:24:24.884Z,88.97
2022-09-28T22:26:53.522Z,88.58
2022-09-28T22:29:24.365Z,88.77
2022-09-28T22:31:53.064Z,88.85
2022-09-28T22:34:21.692Z,88.41
2022-09-28T22:36:50.745Z,88.77
2022-09-28T22:39:19.434Z,88.70
2022-09-28T22:41:48.202Z,88.78
2022-09-28T22:44:16.855Z,89.12
2022-09-28T22:46:47.596Z,88.68
2022-09-28T22:49:17.067Z,89.17
2022-09-28T22:51:45.702Z,88.84
2022-09-28T22:54:16.633Z,89.03
2022-09-28T22:56:45.615Z,89.20
2022-09-28T22:59:14.179Z,89.09
2022-09-28T23:01:43.111Z,89.48
2022-09-28T23:04:13.415Z,89.04
2022-09-28T23:06:42.065Z,89.04
2022-09-28T23:09:10.875Z,89.68
2022-09-28T23:11:39.505Z,89.87
2022-09-28T23:14:08.482Z,89.59
2022-09-28T23:16:37.173Z,89.63
2022-09-28T23:19:06.016Z,89.51
2022-09-28T23:21:37.633Z,89.93
2022-09-28T23:24:06.393Z,89.94
2022-09-28T23:26:37.307Z,90.03
2022-09-28T23:29:06.323Z,90.46
2022-09-28T23:31:35.977Z,90.18
2022-09-28T23:34:05.542Z,89.96
2022-09-28T23:36:36.307Z,90.24
2022-09-28T23:39:05.237Z,90.55
2022-09-28T23:41:33.933Z,90.67
2022-09-28T23:44:02.905Z,90.70
2022-09-28T23:46:32.013Z,90.55
2022-09-28T23:49:00.753Z,90.64
2022-09-28T23:51:29.834Z,90.77
2022-09-28T23:53:59.771Z,90.71
2022-09-28T23:56:28.447Z,91.04
2022-09-28T23:58:57.009Z,90.85
